Time;durP1;ratioP1;P1;durP2;ratioP2;P2;SDS_P1;SDS_P2;PMS_P1;PMS_P2;Temp;Humidity;BMP_temperature;BMP_pressure;BME280_temperature;BME280_humidity;BME280_pressure;Samples;Min_cycle;Max_cycle;Signal;HPM_P1;HPM_P2
2021/03/30 00:01:18;;;;;;;;;;;;;;;18.84;63.79;102452.28;5089286;28;1971;-70
2021/03/30 00:03:44;;;;;;;;;;;;;;;18.84;63.79;102455.78;5090084;28;1570;-69
2021/03/30 00:06:11;;;;;;;;;;;;;;;18.83;63.79;102464.59;5106790;28;1247;-70
2021/03/30 00:08:37;;;;;;;;;;;;;;;18.83;63.87;102451.41;5096359;28;909;-70
2021/03/30 00:11:04;;;;;;;;;;;;;;;18.82;63.95;102462.84;5088479;28;1299;-70
2021/03/30 00:13:31;;;;;;;;;;;;;;;18.81;63.97;102455.88;5088585;28;1256;-70
2021/03/30 00:15:57;;;;;;;;;;;;;;;18.82;63.97;102459.34;5104313;28;1247;-70
2021/03/30 00:18:24;;;;;;;;;;;;;;;18.82;63.91;102465.50;5091165;28;1194;-70
2021/03/30 00:20:51;;;;;;;;;;;;;;;18.81;63.99;102460.28;5109069;28;1977;-70
2021/03/30 00:23:17;;;;;;;;;;;;;;;18.81;63.95;102463.78;5109540;28;1045;-70
2021/03/30 00:25:43;;;;;;;;;;;;;;;18.81;63.92;102455.00;5103479;28;1130;-70
2021/03/30 00:28:10;;;;;;;;;;;;;;;18.80;63.89;102459.41;5088813;28;1224;-70
2021/03/30 00:30:36;;;;;;;;;;;;;;;18.80;63.92;102459.41;5088765;28;795;-70
2021/03/30 00:33:03;;;;;;;;;;;;;;;18.80;63.92;102454.13;5089255;28;1228;-71
2021/03/30 00:35:29;;;;;;;;;;;;;;;18.80;63.97;102448.84;5089046;28;814;-71
2021/03/30 00:37:55;;;;;;;;;;;;;;;18.79;64.00;102447.13;5089324;28;1307;-71
2021/03/30 00:40:21;;;;;;;;;;;;;;;18.79;64.02;102444.47;5088843;28;1983;-70
2021/03/30 00:42:48;;;;;;;;;;;;;;;18.78;63.88;102440.13;5089339;28;1216;-70
2021/03/30 00:45:14;;;;;;;;;;;;;;;18.77;64.03;102433.09;5088995;28;1024;-70
2021/03/30 00:47:45;;;;;;;;;;;;;;;18.77;63.94;102438.38;5089351;28;1208;-67
2021/03/30 00:50:15;;;;;;;;;;;;;;;18.78;64.10;102432.22;5089072;28;1088;-69
2021/03/30 00:52:43;;;;;;;;;;;;;;;18.78;63.99;102431.34;5089483;28;1536;-71
2021/03/30 00:55:10;;;;;;;;;;;;;;;18.78;64.01;102429.56;5088691;28;841;-71
2021/03/30 00:57:37;;;;;;;;;;;;;;;18.77;63.96;102429.59;5088903;28;1248;-70
2021/03/30 01:00:05;;;;;;;;;;;;;;;18.77;63.97;102417.25;5088862;28;1901;-70
2021/03/30 01:02:31;;;;;;;;;;;;;;;18.76;64.06;102414.66;5089046;28;1200;-69
2021/03/30 01:04:59;;;;;;;;;;;;;;;18.76;64.02;102410.25;5070680;28;1111;-69
2021/03/30 01:07:26;;;;;;;;;;;;;;;18.75;63.96;102408.53;5072417;28;1321;-71
2021/03/30 01:09:52;;;;;;;;;;;;;;;18.75;64.01;102408.53;5074139;28;1310;-71
2021/03/30 01:12:36;;;;;;;;;;;;;;;18.76;64.16;102401.47;5092566;28;1371;-71
2021/03/30 01:15:21;;;;;;;;;;;;;;;18.75;63.94;102405.91;5093220;28;1219;-69
2021/03/30 01:17:54;;;;;;;;;;;;;;;18.75;64.13;102402.38;5073951;28;1375;-69
2021/03/30 01:20:39;;;;;;;;;;;;;;;18.73;64.14;102398.91;5074283;28;1922;-69
2021/03/30 01:23:10;;;;;;;;;;;;;;;18.73;64.27;102402.41;5092509;28;1324;-69
2021/03/30 01:25:38;;;;;;;;;;;;;;;18.73;64.19;102398.91;5092470;28;861;-69
2021/03/30 01:28:23;;;;;;;;;;;;;;;18.73;64.13;102397.13;5092190;28;1257;-69
2021/03/30 01:30:51;;;;;;;;;;;;;;;18.74;64.20;102396.25;5092416;28;829;-69
2021/03/30 01:33:21;;;;;;;;;;;;;;;18.72;64.00;102392.78;5092335;28;1135;-69
2021/03/30 01:35:48;;;;;;;;;;;;;;;18.73;64.15;102389.22;5092077;28;790;-69
2021/03/30 01:38:14;;;;;;;;;;;;;;;18.74;64.11;102385.69;5092219;28;1349;-68
2021/03/30 01:40:43;;;;;;;;;;;;;;;18.72;64.25;102384.88;5073483;28;1918;-69
2021/03/30 01:43:10;;;;;;;;;;;;;;;18.72;64.23;102384.88;5092023;28;1224;-69
2021/03/30 01:45:37;;;;;;;;;;;;;;;18.72;64.26;102381.38;5091734;28;995;-70
2021/03/30 01:48:04;;;;;;;;;;;;;;;18.72;64.33;102378.72;5073298;28;1229;-69
2021/03/30 01:50:30;;;;;;;;;;;;;;;18.72;64.35;102373.44;5091354;28;993;-70
2021/03/30 01:52:57;;;;;;;;;;;;;;;18.71;64.31;102369.94;5090903;28;1322;-70
2021/03/30 01:55:23;;;;;;;;;;;;;;;18.70;64.47;102369.97;5091883;28;1087;-69
2021/03/30 01:57:54;;;;;;;;;;;;;;;18.70;64.43;102368.19;5091732;28;1301;-70
2021/03/30 02:00:21;;;;;;;;;;;;;;;18.71;64.38;102363.78;5091403;28;1909;-68
2021/03/30 02:02:48;;;;;;;;;;;;;;;18.70;64.43;102356.78;5091637;28;1282;-68
2021/03/30 02:05:15;;;;;;;;;;;;;;;18.70;64.31;102357.63;5091783;28;747;-68
2021/03/30 02:07:42;;;;;;;;;;;;;;;18.70;64.29;102357.63;5073146;28;1233;-68
2021/03/30 02:10:14;;;;;;;;;;;;;;;18.70;64.25;102367.34;5091226;28;838;-68
2021/03/30 02:12:44;;;;;;;;;;;;;;;18.69;64.39;102355.06;5073447;28;1272;-68
2021/03/30 02:15:12;;;;;;;;;;;;;;;18.69;64.37;102355.94;5091282;28;1083;-68
2021/03/30 02:17:52;;;;;;;;;;;;;;;18.68;64.38;102351.56;5072769;28;1157;-69
2021/03/30 02:20:30;;;;;;;;;;;;;;;18.67;64.31;102359.50;5090512;28;1910;-69
2021/03/30 02:23:08;;;;;;;;;;;;;;;18.67;64.33;102352.47;5072780;28;1209;-70
2021/03/30 02:25:35;;;;;;;;;;;;;;;18.68;64.25;102350.69;5091224;28;818;-70
2021/03/30 02:28:08;;;;;;;;;;;;;;;18.66;64.33;102348.13;5091160;28;1224;-68
2021/03/30 02:30:36;;;;;;;;;;;;;;;18.66;64.39;102348.13;5091017;28;1143;-68
2021/03/30 02:33:03;;;;;;;;;;;;;;;18.66;64.38;102350.75;5091071;28;1291;-67
2021/03/30 02:35:30;;;;;;;;;;;;;;;18.67;64.39;102343.66;5091126;28;1106;-69
2021/03/30 02:37:57;;;;;;;;;;;;;;;18.67;64.43;102339.25;5091061;28;1295;-69
2021/03/30 02:40:24;;;;;;;;;;;;;;;18.66;64.36;102342.84;5090680;28;1906;-69
2021/03/30 02:42:51;;;;;;;;;;;;;;;18.66;64.32;102334.91;5090579;28;1212;-70
2021/03/30 02:45:21;;;;;;;;;;;;;;;18.65;64.46;102332.31;5090916;28;872;-70
2021/03/30 02:48:04;;;;;;;;;;;;;;;18.65;64.25;102327.03;5090504;28;1307;-69
2021/03/30 02:50:31;;;;;;;;;;;;;;;18.64;64.35;102326.16;5090907;28;895;-70
2021/03/30 02:53:01;;;;;;;;;;;;;;;18.65;64.34;102329.66;5071819;28;1392;-69
2021/03/30 02:55:28;;;;;;;;;;;;;;;18.63;64.29;102329.72;5071612;28;1090;-71
2021/03/30 02:57:55;;;;;;;;;;;;;;;18.65;64.30;102327.03;5090434;28;1280;-72
2021/03/30 03:00:25;;;;;;;;;;;;;;;18.63;64.22;102324.47;5072032;28;1917;-71
2021/03/30 03:02:52;;;;;;;;;;;;;;;18.63;64.25;102328.88;5090608;28;1212;-72
2021/03/30 03:05:18;;;;;;;;;;;;;;;18.62;64.36;102322.72;5090267;28;1219;-71
2021/03/30 03:07:45;;;;;;;;;;;;;;;18.63;64.26;102319.19;5072042;28;1335;-71
2021/03/30 03:10:14;;;;;;;;;;;;;;;18.62;64.32;102311.28;5072155;28;1373;-70
2021/03/30 03:12:42;;;;;;;;;;;;;;;18.63;64.27;102315.66;5090068;28;1229;-70
2021/03/30 03:15:11;;;;;;;;;;;;;;;18.62;64.27;102314.81;5090093;28;843;-70
2021/03/30 03:17:39;;;;;;;;;;;;;;;18.62;64.32;102311.28;5071603;28;1361;-70
2021/03/30 03:20:07;;;;;;;;;;;;;;;18.61;64.42;102315.69;5089974;28;1092;-70
2021/03/30 03:22:34;;;;;;;;;;;;;;;18.61;64.31;102310.44;5089913;28;1913;-70
2021/03/30 03:25:01;;;;;;;;;;;;;;;18.61;64.39;102313.06;5090158;28;846;-70
2021/03/30 03:27:28;;;;;;;;;;;;;;;18.60;64.23;102314.00;5071377;28;1263;-69
2021/03/30 03:29:54;;;;;;;;;;;;;;;18.61;64.35;102314.84;5070806;28;1254;-69
2021/03/30 03:32:24;;;;;;;;;;;;;;;18.60;64.37;102311.34;5089921;28;1227;-69
2021/03/30 03:34:50;;;;;;;;;;;;;;;18.60;64.34;102308.72;5090052;28;715;-69
2021/03/30 03:37:17;;;;;;;;;;;;;;;18.61;64.31;102306.91;5089781;28;1299;-69
2021/03/30 03:39:43;;;;;;;;;;;;;;;18.60;64.32;102303.44;5089643;28;1194;-69
2021/03/30 03:42:09;;;;;;;;;;;;;;;18.60;64.33;102305.22;5089435;28;1978;-69
2021/03/30 03:44:35;;;;;;;;;;;;;;;18.59;64.20;102304.34;5088791;28;1048;-68
2021/03/30 03:47:02;;;;;;;;;;;;;;;18.59;64.26;102301.69;5089498;28;1220;-69
2021/03/30 03:49:29;;;;;;;;;;;;;;;18.60;64.32;102303.44;5089707;28;841;-69
2021/03/30 03:52:01;;;;;;;;;;;;;;;18.58;64.40;102304.38;5089206;28;1220;-69
2021/03/30 03:54:27;;;;;;;;;;;;;;;18.58;64.24;102302.59;5089425;28;778;-69
2021/03/30 03:56:56;;;;;;;;;;;;;;;18.58;64.31;102294.69;5089543;28;1181;-69
2021/03/30 03:59:26;;;;;;;;;;;;;;;18.59;64.35;102301.69;5070906;28;1136;-69
2021/03/30 04:01:58;;;;;;;;;;;;;;;18.58;64.37;102299.97;5089128;28;1929;-69
2021/03/30 04:04:28;;;;;;;;;;;;;;;18.59;64.34;102308.75;5089116;28;763;-70
2021/03/30 04:07:00;;;;;;;;;;;;;;;18.57;64.25;102303.53;5089267;28;1266;-70
2021/03/30 04:09:27;;;;;;;;;;;;;;;18.57;64.33;102303.53;5089084;28;1084;-71
2021/03/30 04:11:54;;;;;;;;;;;;;;;18.57;64.31;102311.47;5089229;28;1275;-71
2021/03/30 04:14:22;;;;;;;;;;;;;;;18.57;64.33;102302.66;5071169;28;804;-70
2021/03/30 04:16:48;;;;;;;;;;;;;;;18.59;64.30;102301.69;5071090;28;1317;-70
2021/03/30 04:19:15;;;;;;;;;;;;;;;18.56;64.36;102301.81;5089480;28;776;-70
2021/03/30 04:21:41;;;;;;;;;;;;;;;18.57;64.27;102306.19;5089144;28;1990;-69
2021/03/30 04:24:08;;;;;;;;;;;;;;;18.55;64.36;102300.94;5088941;28;794;-69
2021/03/30 04:26:38;;;;;;;;;;;;;;;18.55;64.52;102305.34;5088695;28;1235;-69
2021/03/30 04:29:05;;;;;;;;;;;;;;;18.55;64.34;102300.94;5070473;28;889;-69
2021/03/30 04:31:32;;;;;;;;;;;;;;;18.53;64.37;102308.03;5088230;28;1325;-70
2021/03/30 04:33:58;;;;;;;;;;;;;;;18.54;64.25;102312.38;5088519;28;786;-70
2021/03/30 04:36:25;;;;;;;;;;;;;;;18.54;64.38;102309.75;5088675;28;1192;-69
2021/03/30 04:38:51;;;;;;;;;;;;;;;18.54;64.28;102316.84;5088683;28;830;-70
2021/03/30 04:41:18;;;;;;;;;;;;;;;18.53;64.18;102318.59;5088966;28;1918;-71
2021/03/30 04:43:44;;;;;;;;;;;;;;;18.53;64.32;102320.38;5074837;28;1084;-70
2021/03/30 04:46:10;;;;;;;;;;;;;;;18.53;64.13;102321.25;5074436;28;1236;-70
2021/03/30 04:48:37;;;;;;;;;;;;;;;18.53;64.38;102317.72;5093322;28;1320;-70
2021/03/30 04:51:03;;;;;;;;;;;;;;;18.54;64.23;102324.75;5092848;28;1613;-70
2021/03/30 04:53:29;;;;;;;;;;;;;;;18.53;64.25;102323.88;5093459;28;1220;-68
2021/03/30 04:55:56;;;;;;;;;;;;;;;18.52;64.09;102321.28;5092520;28;1291;-70
2021/03/30 04:58:22;;;;;;;;;;;;;;;18.51;64.25;102325.69;5093008;28;1012;-67
2021/03/30 05:00:49;;;;;;;;;;;;;;;18.53;64.20;102328.28;5092919;28;1910;-69
2021/03/30 05:03:15;;;;;;;;;;;;;;;18.53;64.22;102325.66;5074872;28;1276;-70
2021/03/30 05:05:41;;;;;;;;;;;;;;;18.51;64.23;102325.69;5092848;28;1142;-69
2021/03/30 05:08:07;;;;;;;;;;;;;;;18.50;64.24;102318.69;5108904;28;1594;-69
2021/03/30 05:10:33;;;;;;;;;;;;;;;18.51;64.10;102324.84;5111664;28;1423;-69
2021/03/30 05:13:00;;;;;;;;;;;;;;;18.51;64.23;102322.22;5099924;28;1284;-69
2021/03/30 05:15:26;;;;;;;;;;;;;;;18.51;64.20;102325.69;5104165;28;809;-69
2021/03/30 05:17:52;;;;;;;;;;;;;;;18.51;64.14;102324.84;5074646;28;1478;-68
2021/03/30 05:20:19;;;;;;;;;;;;;;;18.49;64.21;102338.06;5102600;28;775;-69
2021/03/30 05:22:46;;;;;;;;;;;;;;;18.48;64.07;102338.09;5113209;28;1973;-70
2021/03/30 05:25:12;;;;;;;;;;;;;;;18.49;64.19;102343.34;5113162;28;860;-70
2021/03/30 05:27:39;;;;;;;;;;;;;;;18.51;64.17;102343.31;5077282;28;1153;-69
2021/03/30 05:30:10;;;;;;;;;;;;;;;18.50;64.11;102344.22;5112335;28;849;-69
2021/03/30 05:32:36;;;;;;;;;;;;;;;18.48;64.12;102346.03;5112644;28;1208;-69
2021/03/30 05:35:05;;;;;;;;;;;;;;;18.49;64.13;102353.03;5112300;28;1165;-69
2021/03/30 05:37:36;;;;;;;;;;;;;;;18.49;64.21;102353.91;5112531;28;1257;-69
2021/03/30 05:40:04;;;;;;;;;;;;;;;18.49;64.22;102367.09;5112274;28;791;-69
2021/03/30 05:42:32;;;;;;;;;;;;;;;18.48;64.27;102361.84;5112295;28;1913;-70
2021/03/30 05:44:58;;;;;;;;;;;;;;;18.47;64.25;102368.03;5112148;28;841;-71
2021/03/30 05:47:26;;;;;;;;;;;;;;;18.48;64.20;102367.13;5112407;28;1214;-70
2021/03/30 05:49:53;;;;;;;;;;;;;;;18.47;64.21;102373.31;5109316;28;758;-69
2021/03/30 05:52:37;;;;;;;;;;;;;;;18.48;63.99;102370.59;5072292;28;1489;-70
2021/03/30 05:55:04;;;;;;;;;;;;;;;18.46;63.96;102369.78;5091669;28;1123;-68
2021/03/30 05:57:30;;;;;;;;;;;;;;;18.47;63.95;102366.25;5091962;28;1188;-71
2021/03/30 05:59:59;;;;;;;;;;;;;;;18.48;64.02;102372.41;5073685;28;861;-69
2021/03/30 06:02:34;;;;;;;;;;;;;;;18.47;63.75;102376.81;5073411;28;1978;-70
2021/03/30 06:05:00;;;;;;;;;;;;;;;18.45;63.95;102372.50;5091507;28;963;-71
2021/03/30 06:07:30;;;;;;;;;;;;;;;18.45;63.86;102368.06;5073024;28;1207;-69
2021/03/30 06:09:58;;;;;;;;;;;;;;;18.45;63.96;102372.50;5091337;28;956;-70
2021/03/30 06:12:27;;;;;;;;;;;;;;;18.45;63.94;102375.13;5073000;28;1334;-68
2021/03/30 06:14:59;;;;;;;;;;;;;;;18.45;63.95;102377.78;5073105;28;822;-69
2021/03/30 06:17:26;;;;;;;;;;;;;;;18.46;63.88;102384.75;5090793;28;1287;-71
2021/03/30 06:19:54;;;;;;;;;;;;;;;18.46;63.88;102382.13;5091147;28;960;-70
2021/03/30 06:22:21;;;;;;;;;;;;;;;18.43;63.90;102387.50;5091563;28;1910;-70
2021/03/30 06:24:48;;;;;;;;;;;;;;;18.49;64.15;102392.63;5091578;28;1119;-72
2021/03/30 06:27:18;;;;;;;;;;;;;;;18.54;63.95;102383.66;5090940;28;1408;-72
2021/03/30 06:29:45;;;;;;;;;;;;;;;18.50;63.46;102386.44;5071825;28;1220;-71
2021/03/30 06:32:12;;;;;;;;;;;;;;;18.50;63.75;102391.72;5072523;28;1279;-71
2021/03/30 06:34:41;;;;;;;;;;;;;;;18.67;64.96;102383.25;5091119;28;826;-68
2021/03/30 06:37:25;;;;;;;;;;;;;;;18.78;64.56;102395.25;5090747;28;1283;-67
2021/03/30 06:39:52;;;;;;;;;;;;;;;18.85;64.49;102398.53;5090650;28;941;-71
2021/03/30 06:42:26;;;;;;;;;;;;;;;18.83;64.52;102390.66;5102361;28;1918;-68
2021/03/30 06:44:53;;;;;;;;;;;;;;;18.84;64.60;102381.84;5111413;28;999;-68
2021/03/30 06:47:20;;;;;;;;;;;;;;;18.87;64.35;102386.16;5110879;28;1173;-71
2021/03/30 06:49:55;;;;;;;;;;;;;;;18.84;63.36;102391.53;5092597;28;1055;-70
2021/03/30 06:52:26;;;;;;;;;;;;;;;18.81;63.44;102395.16;5072145;28;1656;-70
2021/03/30 06:54:54;;;;;;;;;;;;;;;18.81;63.70;102395.16;5105386;28;1736;-71
2021/03/30 06:57:35;;;;;;;;;;;;;;;18.82;63.78;102399.50;5077398;28;1545;-71
2021/03/30 07:00:03;;;;;;;;;;;;;;;18.86;64.14;102410.81;5092458;28;1560;-69
2021/03/30 07:02:30;;;;;;;;;;;;;;;18.84;63.76;102400.34;5107681;28;1918;-69
2021/03/30 07:04:57;;;;;;;;;;;;;;;18.84;63.60;102408.25;5108365;28;1595;-69
2021/03/30 07:07:24;;;;;;;;;;;;;;;18.83;63.83;102401.22;5109042;28;1299;-69
2021/03/30 07:09:53;;;;;;;;;;;;;;;18.85;63.82;102403.81;5108856;28;1205;-69
2021/03/30 07:12:23;;;;;;;;;;;;;;;18.85;63.79;102402.03;5108953;28;1149;-69
2021/03/30 07:14:49;;;;;;;;;;;;;;;18.86;63.95;102395.84;5090416;28;1620;-70
2021/03/30 07:17:21;;;;;;;;;;;;;;;18.91;64.92;102403.63;5108478;28;1316;-67
2021/03/30 07:19:48;;;;;;;;;;;;;;;18.92;65.07;102406.22;5108381;28;749;-67
2021/03/30 07:22:17;;;;;;;;;;;;;;;18.92;65.04;102411.50;5108562;28;1909;-66
2021/03/30 07:24:54;;;;;;;;;;;;;;;18.89;63.93;102408.97;5109004;28;817;-67
2021/03/30 07:27:23;;;;;;;;;;;;;;;18.90;63.72;102401.91;5108718;28;1272;-68
2021/03/30 07:29:50;;;;;;;;;;;;;;;18.91;64.34;102400.97;5090888;28;739;-67
2021/03/30 07:32:36;;;;;;;;;;;;;;;18.91;64.20;102407.13;5109202;28;1204;-66
2021/03/30 07:35:10;;;;;;;;;;;;;;;18.90;64.20;102410.69;5108852;28;1137;-66
2021/03/30 07:37:44;;;;;;;;;;;;;;;18.92;64.50;102408.88;5108850;28;1204;-68
2021/03/30 07:40:13;;;;;;;;;;;;;;;18.94;65.00;102414.09;5089894;28;1867;-67
2021/03/30 07:42:41;;;;;;;;;;;;;;;18.93;64.40;102413.25;5089629;28;1918;-69
2021/03/30 07:45:09;;;;;;;;;;;;;;;19.02;65.16;102406.81;5101169;28;1526;-67
2021/03/30 07:47:36;;;;;;;;;;;;;;;19.02;64.83;102410.31;5082304;28;1228;-66
2021/03/30 07:50:05;;;;;;;;;;;;;;;19.00;65.35;102404.19;5101305;28;798;-69
2021/03/30 07:52:37;;;;;;;;;;;;;;;18.97;65.07;102409.56;5088066;28;1684;-67
2021/03/30 07:55:17;;;;;;;;;;;;;;;18.96;65.07;102415.78;5069952;28;743;-67
2021/03/30 07:58:03;;;;;;;;;;;;;;;18.99;65.54;102406.91;5098455;28;1291;-68
2021/03/30 08:00:29;;;;;;;;;;;;;;;19.05;65.34;102404.94;5107931;28;809;-68
2021/03/30 08:02:56;;;;;;;;;;;;;;;19.05;65.55;102414.63;5107960;28;1981;-67
2021/03/30 08:05:26;;;;;;;;;;;;;;;19.03;65.73;102406.72;5107569;28;1528;-67
2021/03/30 08:07:58;;;;;;;;;;;;;;;19.08;65.11;102411.88;5100820;28;1350;-67
2021/03/30 08:10:34;;;;;;;;;;;;;;;19.10;65.31;102410.91;5091589;27;1532;-67
2021/03/30 08:13:20;;;;;;;;;;;;;;;19.15;64.77;102421.31;5099581;28;1319;-65
2021/03/30 08:15:51;;;;;;;;;;;;;;;19.16;64.99;102416.91;5100008;28;753;-66
2021/03/30 08:18:19;;;;;;;;;;;;;;;19.18;64.78;102409.81;5107471;28;1033;-66
2021/03/30 08:20:58;;;;;;;;;;;;;;;19.19;64.85;102409.75;5072796;28;1425;-66
2021/03/30 08:23:25;;;;;;;;;;;;;;;19.21;64.71;102412.34;5101317;28;1225;-68
2021/03/30 08:25:54;;;;;;;;;;;;;;;19.22;64.82;102414.06;5086282;28;813;-68
2021/03/30 08:28:47;;;;;;;;;;;;;;;19.22;64.87;102414.06;5087287;28;1118;-66
2021/03/30 08:31:14;;;;;;;;;;;;;;;19.21;65.20;102409.72;5083699;28;1295;-67
2021/03/30 08:33:41;;;;;;;;;;;;;;;19.27;65.08;102415.63;5087742;28;1460;-64
2021/03/30 08:36:34;;;;;;;;;;;;;;;19.20;65.29;102400.06;5104566;28;1252;-64
2021/03/30 08:39:09;;;;;;;;;;;;;;;19.24;65.18;102412.25;5103139;28;1268;-64
2021/03/30 08:41:41;;;;;;;;;;;;;;;19.23;65.33;102415.78;5107301;28;1959;-63
2021/03/30 08:44:12;;;;;;;;;;;;;;;19.20;65.64;102416.75;5089206;28;1191;-63
2021/03/30 08:46:39;;;;;;;;;;;;;;;19.17;65.56;102410.72;5069490;28;1730;-64
2021/03/30 08:49:20;;;;;;;;;;;;;;;19.33;64.78;102407.50;5089038;28;1400;-66
2021/03/30 08:51:47;;;;;;;;;;;;;;;19.29;65.14;102407.66;5097724;28;1548;-67
2021/03/30 08:54:14;;;;;;;;;;;;;;;19.35;65.31;102412.75;5086461;28;1117;-67
2021/03/30 08:56:44;;;;;;;;;;;;;;;19.57;64.31;102405.88;5068600;28;1279;-67
2021/03/30 08:59:11;;;;;;;;;;;;;;;19.47;64.57;102421.16;5068879;28;1278;-69
2021/03/30 09:01:37;;;;;;;;;;;;;;;19.41;64.74;102425.78;5087245;28;1905;-72
2021/03/30 09:04:04;;;;;;;;;;;;;;;19.47;64.39;102425.59;5087034;28;1205;-68
2021/03/30 09:06:35;;;;;;;;;;;;;;;19.38;64.73;102426.72;5087235;28;1175;-73
2021/03/30 09:09:02;;;;;;;;;;;;;;;19.38;64.62;102421.44;5069172;28;900;-68
2021/03/30 09:11:31;;;;;;;;;;;;;;;19.34;64.77;102418.94;5086623;28;1247;-73
2021/03/30 09:14:01;;;;;;;;;;;;;;;19.36;64.99;102419.78;5061194;28;1463;-74
2021/03/30 09:16:28;;;;;;;;;;;;;;;19.31;64.92;102408.47;5067682;28;1319;-74
2021/03/30 09:19:15;;;;;;;;;;;;;;;19.29;66.12;102419.09;5048575;28;1718;-71
2021/03/30 09:21:43;;;;;;;;;;;;;;;19.31;66.16;102411.97;5067885;28;1906;-69
2021/03/30 09:24:17;;;;;;;;;;;;;;;19.30;65.54;102407.59;5086601;28;1314;-73
2021/03/30 09:26:53;;;;;;;;;;;;;;;19.39;65.90;102411.75;5086208;28;1331;-69
2021/03/30 09:29:20;;;;;;;;;;;;;;;19.37;65.55;102409.13;5065736;28;1507;-69
2021/03/30 09:31:47;;;;;;;;;;;;;;;19.34;66.74;102413.66;5074295;28;1458;-71
2021/03/30 09:34:13;;;;;;;;;;;;;;;19.40;66.99;102408.19;5079659;28;1107;-70
2021/03/30 09:36:40;;;;;;;;;;;;;;;19.44;65.14;102409.81;5084573;28;1589;-70
2021/03/30 09:39:06;;;;;;;;;;;;;;;19.30;60.46;102412.06;5090307;28;868;-69
2021/03/30 09:41:33;;;;;;;;;;;;;;;19.21;59.52;102413.19;5071721;28;1905;-68
2021/03/30 09:44:01;;;;;;;;;;;;;;;19.18;60.22;102412.44;5070403;28;824;-67
2021/03/30 09:46:40;;;;;;;;;;;;;;;19.16;63.97;102408.97;5070085;28;1232;-67
2021/03/30 09:49:08;;;;;;;;;;;;;;;19.12;64.61;102413.50;5071567;28;937;-69
2021/03/30 09:51:38;;;;;;;;;;;;;;;19.09;64.20;102409.19;5061381;28;1686;-66
2021/03/30 09:54:43;;;;;;;;;;;;;;;19.05;64.06;102412.84;5090975;28;925;-69
2021/03/30 09:57:13;;;;;;;;;;;;;;;19.05;64.21;102412.84;4989029;28;1424;-67
2021/03/30 09:59:46;;;;;;;;;;;;;;;19.03;63.99;102405.88;4973280;28;784;-67
2021/03/30 10:02:13;;;;;;;;;;;;;;;19.00;64.03;102404.19;4988930;28;1879;-68
2021/03/30 10:04:40;;;;;;;;;;;;;;;19.00;64.10;102401.56;4988153;28;850;-68
2021/03/30 10:07:16;;;;;;;;;;;;;;;18.99;64.10;102406.91;4989167;28;1194;-68
2021/03/30 10:09:54;;;;;;;;;;;;;;;18.98;64.07;102400.75;5088666;28;930;-68
2021/03/30 10:12:27;;;;;;;;;;;;;;;18.97;63.99;102393.72;5091230;28;1331;-67
2021/03/30 10:14:54;;;;;;;;;;;;;;;18.95;64.02;102394.69;5091173;28;1071;-67
2021/03/30 10:17:20;;;;;;;;;;;;;;;18.94;63.88;102392.97;5091273;28;1297;-66
2021/03/30 10:19:52;;;;;;;;;;;;;;;18.93;64.00;102394.75;5091156;28;833;-67
2021/03/30 10:22:21;;;;;;;;;;;;;;;18.93;63.95;102391.25;5090721;28;1985;-67
2021/03/30 10:25:14;;;;;;;;;;;;;;;18.91;63.97;102399.19;5091178;28;778;-67
2021/03/30 10:27:50;;;;;;;;;;;;;;;18.91;63.89;102404.47;5072499;28;1284;-67
2021/03/30 10:30:17;;;;;;;;;;;;;;;18.91;63.85;102404.47;5072518;28;806;-66
2021/03/30 10:32:50;;;;;;;;;;;;;;;18.91;63.96;102400.97;5090999;28;1217;-67
2021/03/30 10:35:16;;;;;;;;;;;;;;;18.90;63.88;102410.69;5090712;28;834;-67
2021/03/30 10:37:43;;;;;;;;;;;;;;;18.88;63.85;102399.31;5090661;28;1184;-67
2021/03/30 10:40:10;;;;;;;;;;;;;;;18.89;63.84;102403.69;5089737;28;821;-68
2021/03/30 10:42:40;;;;;;;;;;;;;;;18.88;63.94;102401.06;5090806;28;1914;-67
2021/03/30 10:45:08;;;;;;;;;;;;;;;18.88;63.98;102399.31;5090498;28;728;-67
2021/03/30 10:47:38;;;;;;;;;;;;;;;18.89;64.05;102400.16;5090683;28;1327;-68
2021/03/30 10:50:09;;;;;;;;;;;;;;;18.81;64.06;102384.59;5072186;28;775;-67
2021/03/30 10:52:38;;;;;;;;;;;;;;;18.87;64.06;102399.38;5072031;28;1260;-67
2021/03/30 10:55:13;;;;;;;;;;;;;;;18.87;64.01;102397.59;5072186;28;1076;-67
2021/03/30 10:57:43;;;;;;;;;;;;;;;18.85;64.04;102391.47;5090496;28;1252;-67
2021/03/30 11:00:10;;;;;;;;;;;;;;;18.84;64.10;102396.81;5090520;28;916;-68
2021/03/30 11:02:36;;;;;;;;;;;;;;;18.85;64.13;102393.25;5089388;28;1906;-68
2021/03/30 11:05:06;;;;;;;;;;;;;;;18.84;64.13;102386.25;5090488;28;798;-67
2021/03/30 11:07:33;;;;;;;;;;;;;;;18.83;64.09;102380.13;5090101;28;1255;-67
2021/03/30 11:10:00;;;;;;;;;;;;;;;18.83;64.09;102372.19;5090533;28;797;-68
2021/03/30 11:12:27;;;;;;;;;;;;;;;18.84;64.14;102367.78;5090194;28;1295;-68
2021/03/30 11:14:53;;;;;;;;;;;;;;;18.83;64.08;102368.69;5071830;28;1123;-68
2021/03/30 11:17:20;;;;;;;;;;;;;;;18.83;64.13;102372.19;5090262;28;1180;-68
2021/03/30 11:19:46;;;;;;;;;;;;;;;18.83;63.86;102366.91;5071907;28;1038;-68
2021/03/30 11:22:12;;;;;;;;;;;;;;;18.82;64.12;102373.09;5089609;28;1984;-67
2021/03/30 11:24:40;;;;;;;;;;;;;;;18.82;63.87;102367.81;5089953;28;1148;-68
2021/03/30 11:27:07;;;;;;;;;;;;;;;18.82;64.03;102354.63;5089876;28;1269;-67
2021/03/30 11:37:33;;;;;;;;;;;;;;;18.83;63.90;102358.13;5089747;28;1195;-68
2021/03/30 11:40:00;;;;;;;;;;;;;;;18.81;63.98;102357.31;5071637;28;877;-68
2021/03/30 11:42:26;;;;;;;;;;;;;;;18.81;63.90;102360.81;5070897;28;1997;-68
2021/03/30 11:44:53;;;;;;;;;;;;;;;18.81;63.84;102352.03;5054782;28;1215;-67
2021/03/30 11:47:19;;;;;;;;;;;;;;;18.74;63.91;102343.44;5089435;28;1199;-67
2021/03/30 11:49:45;;;;;;;;;;;;;;;18.79;63.96;102354.72;5071167;28;1195;-68
2021/03/30 11:52:11;;;;;;;;;;;;;;;18.78;63.67;102345.09;5089155;28;1345;-67
2021/03/30 11:54:38;;;;;;;;;;;;;;;18.80;63.81;102353.81;5089095;28;767;-68
2021/03/30 11:57:04;;;;;;;;;;;;;;;18.80;63.59;102352.94;5070845;28;1310;-67
2021/03/30 11:59:30;;;;;;;;;;;;;;;18.79;63.56;102352.06;5070948;28;1073;-68
2021/03/30 12:01:57;;;;;;;;;;;;;;;18.80;63.55;102348.53;5089062;28;1975;-68
2021/03/30 12:04:23;;;;;;;;;;;;;;;18.81;63.31;102341.47;5089318;28;1151;-67
2021/03/30 12:06:49;;;;;;;;;;;;;;;18.81;63.37;102342.34;5088960;28;1198;-68
2021/03/30 12:09:15;;;;;;;;;;;;;;;18.82;63.17;102343.19;5089002;28;1092;-67
2021/03/30 12:11:44;;;;;;;;;;;;;;;18.82;63.25;102341.41;5088085;28;1184;-67
2021/03/30 12:14:13;;;;;;;;;;;;;;;18.82;63.28;102338.78;5088779;28;1018;-68
2021/03/30 12:16:39;;;;;;;;;;;;;;;18.83;63.15;102340.50;5089052;28;1212;-68
2021/03/30 12:19:06;;;;;;;;;;;;;;;18.82;63.10;102341.41;5088852;28;1172;-68
2021/03/30 12:21:34;;;;;;;;;;;;;;;18.84;63.15;102338.75;5088644;28;1909;-68
2021/03/30 12:24:09;;;;;;;;;;;;;;;18.86;63.05;102334.25;5070603;28;1274;-68
2021/03/30 12:26:39;;;;;;;;;;;;;;;18.86;63.16;102336.91;5088872;28;1275;-68
2021/03/30 12:29:07;;;;;;;;;;;;;;;18.84;63.26;102326.41;5070317;28;1198;-68
2021/03/30 12:31:35;;;;;;;;;;;;;;;18.86;63.23;102329.84;5088921;28;1138;-68
2021/03/30 12:34:04;;;;;;;;;;;;;;;18.88;63.17;102319.22;5070240;28;1125;-68
2021/03/30 12:36:48;;;;;;;;;;;;;;;18.86;63.12;102321.94;5088470;28;1356;-68
2021/03/30 12:39:17;;;;;;;;;;;;;;;18.88;63.11;102319.22;5070378;28;1332;-67
2021/03/30 12:41:45;;;;;;;;;;;;;;;18.88;62.99;102313.94;5088637;28;1989;-66
2021/03/30 12:44:13;;;;;;;;;;;;;;;18.88;63.09;102314.81;5088650;28;783;-66
2021/03/30 12:46:40;;;;;;;;;;;;;;;18.86;63.14;102316.66;5071338;28;1248;-66
2021/03/30 12:49:07;;;;;;;;;;;;;;;18.83;63.08;102316.75;5054161;28;1471;-66
2021/03/30 12:51:34;;;;;;;;;;;;;;;18.81;63.26;102308.03;5088580;28;1381;-66
2021/03/30 12:54:05;;;;;;;;;;;;;;;18.82;63.19;102298.28;5070582;28;1458;-66
2021/03/30 12:56:32;;;;;;;;;;;;;;;18.81;63.15;102307.16;5088142;28;1213;-67
2021/03/30 12:58:59;;;;;;;;;;;;;;;18.78;63.14;102302.84;5069123;28;1098;-67
2021/03/30 13:01:30;;;;;;;;;;;;;;;18.80;63.01;102303.66;5088161;28;1983;-65
2021/03/30 13:03:59;;;;;;;;;;;;;;;18.78;63.12;102302.84;5072993;28;1061;-68
2021/03/30 13:06:29;;;;;;;;;;;;;;;18.87;62.87;102297.25;5073590;28;1285;-68